Time;durP1;ratioP1;P1;durP2;ratioP2;P2;SDS_P1;SDS_P2;PMS_P1;PMS_P2;Temp;Humidity;BMP_temperature;BMP_pressure;BME280_temperature;BME280_humidity;BME280_pressure;Samples;Min_cycle;Max_cycle;Signal;HPM_P1;HPM_P2
2022/01/01 00:00:38;;;;;;;7.43;4.60;;;2.80;99.90;2.80;97272.00;;;;5038343;28;20436;-79
2022/01/01 00:03:27;;;;;;;6.03;4.80;;;2.90;99.90;3.00;97263.00;;;;5038883;28;20469;-79
2022/01/01 00:06:16;;;;;;;8.03;3.70;;;2.90;99.90;3.00;97260.00;;;;5041898;28;20432;-79
2022/01/01 00:09:05;;;;;;;5.70;4.13;;;3.10;99.90;3.00;97268.00;;;;5054466;28;20434;-80
2022/01/01 00:11:55;;;;;;;5.17;3.80;;;3.10;99.90;3.10;97261.00;;;;5040909;28;20447;-79
2022/01/01 00:14:45;;;;;;;4.47;3.67;;;3.20;99.90;2.80;97276.00;;;;5045848;28;20750;-79
2022/01/01 00:17:34;;;;;;;9.50;5.03;;;3.20;99.90;3.10;97263.00;;;;5049807;28;20441;-80
2022/01/01 00:20:23;;;;;;;6.20;4.20;;;3.10;99.90;2.90;97263.00;;;;5047721;28;20515;-81
2022/01/01 00:23:12;;;;;;;6.10;4.60;;;3.10;99.90;2.70;97266.00;;;;5047960;28;20436;-80
2022/01/01 00:26:01;;;;;;;6.17;4.00;;;3.10;99.90;2.70;97265.00;;;;5054666;28;20432;-80
2022/01/01 00:28:50;;;;;;;6.23;4.47;;;3.00;99.90;2.20;97262.00;;;;5058597;28;20425;-80
2022/01/01 00:31:41;;;;;;;7.80;4.43;;;4.20;99.90;2.40;97273.00;;;;5034539;28;20452;-80
2022/01/01 00:34:30;;;;;;;6.70;4.33;;;2.90;99.90;2.60;97275.00;;;;5044354;28;20562;-80
2022/01/01 00:37:20;;;;;;;7.93;5.20;;;2.80;99.90;2.50;97281.00;;;;5036208;28;20436;-79
2022/01/01 00:40:10;;;;;;;6.20;4.83;;;2.80;99.90;2.50;97273.00;;;;5043352;28;20435;-80
2022/01/01 00:42:59;;;;;;;7.10;5.47;;;2.80;99.90;2.60;97280.00;;;;5038682;28;20444;-80
2022/01/01 00:45:48;;;;;;;8.27;5.93;;;2.80;99.90;2.40;97281.00;;;;5036481;28;20987;-79
2022/01/01 00:48:38;;;;;;;8.13;5.03;;;2.80;99.90;2.50;97274.00;;;;5046155;28;20432;-78
2022/01/01 00:51:38;;;;;;;9.93;5.03;;;2.70;99.90;2.50;97274.00;;;;5042715;28;20490;-79
2022/01/01 00:54:27;;;;;;;6.13;4.77;;;2.70;99.90;2.60;97267.00;;;;5037319;28;20460;-80
2022/01/01 00:57:16;;;;;;;8.10;6.30;;;1.50;99.90;2.50;97271.00;;;;5044020;28;20462;-79
2022/01/01 01:00:07;;;;;;;7.17;5.63;;;2.70;99.90;2.60;97282.00;;;;5041112;28;20432;-80
2022/01/01 01:02:56;;;;;;;7.63;5.63;;;2.80;99.90;2.40;97277.00;;;;5028724;28;20457;-80
2022/01/01 01:05:48;;;;;;;7.33;5.53;;;2.80;99.90;2.50;97265.00;;;;5039011;28;20443;-79
2022/01/01 01:08:36;;;;;;;9.70;6.40;;;2.70;99.90;2.50;97278.00;;;;5039189;28;20429;-78
2022/01/01 01:11:25;;;;;;;8.50;5.77;;;2.70;99.90;2.70;97278.00;;;;5036765;28;20463;-78
2022/01/01 01:14:21;;;;;;;8.23;5.43;;;2.70;99.90;2.00;97279.00;;;;5034179;28;20476;-79
2022/01/01 01:17:10;;;;;;;5.83;4.53;;;2.70;99.90;2.40;97272.00;;;;5038248;28;20432;-80
2022/01/01 01:19:59;;;;;;;10.97;7.63;;;2.60;99.90;2.50;97277.00;;;;5046303;28;20432;-80
2022/01/01 01:22:50;;;;;;;9.50;6.77;;;2.70;99.90;2.40;97268.00;;;;5035334;28;20440;-80
2022/01/01 01:25:40;;;;;;;8.10;6.37;;;2.70;99.90;2.40;97260.00;;;;5037146;28;20440;-79
2022/01/01 01:28:29;;;;;;;8.83;5.30;;;2.60;99.90;2.50;97269.00;;;;5034005;28;20427;-80
2022/01/01 01:31:19;;;;;;;8.27;6.70;;;2.70;99.90;2.40;97266.00;;;;5036676;28;20869;-80
2022/01/01 01:34:08;;;;;;;11.13;8.23;;;2.70;99.90;2.30;97256.00;;;;5043675;28;20459;-79
2022/01/01 01:36:58;;;;;;;10.60;7.83;;;2.60;99.90;2.30;97242.00;;;;5035695;28;20460;-79
2022/01/01 01:39:49;;;;;;;10.63;6.30;;;2.50;99.90;2.40;97245.00;;;;5035811;28;20412;-80
2022/01/01 01:42:38;;;;;;;10.40;6.83;;;2.60;99.90;2.50;97241.00;;;;5036015;28;20440;-80
2022/01/01 01:45:28;;;;;;;7.33;6.37;;;2.60;99.90;2.60;97233.00;;;;5043333;28;20515;-79
2022/01/01 01:48:17;;;;;;;6.83;5.90;;;2.70;99.90;2.50;97244.00;;;;5031232;28;20492;-79
2022/01/01 01:51:06;;;;;;;10.33;6.30;;;2.70;99.90;2.60;97230.00;;;;5049995;28;20443;-80
2022/01/01 01:53:55;;;;;;;9.37;5.97;;;2.70;99.90;2.60;97241.00;;;;5039248;28;20476;-80
2022/01/01 01:56:47;;;;;;;9.43;6.20;;;2.70;99.90;2.80;97216.00;;;;5038390;28;20426;-80
2022/01/01 01:59:36;;;;;;;12.70;6.43;;;2.80;99.90;2.70;97226.00;;;;5039471;28;20429;-79
2022/01/01 02:02:25;;;;;;;10.40;6.97;;;2.80;99.90;2.60;97217.00;;;;5040100;28;20470;-80
2022/01/01 02:05:14;;;;;;;8.20;5.97;;;2.80;99.90;2.80;97214.00;;;;5039032;28;20531;-80
2022/01/01 02:08:04;;;;;;;10.93;6.77;;;2.80;99.90;2.80;97221.00;;;;5040376;28;20420;-79
2022/01/01 02:10:53;;;;;;;9.57;5.83;;;2.90;99.90;2.90;97227.00;;;;5038501;28;20444;-80
2022/01/01 02:14:00;;;;;;;9.00;5.47;;;3.40;99.90;3.00;97213.00;;;;5030847;28;20464;-80
2022/01/01 02:17:08;;;;;;;7.50;5.27;;;3.00;99.90;3.00;97216.00;;;;5033521;28;20424;-80
2022/01/01 02:20:04;;;;;;;6.17;4.60;;;3.00;99.90;3.00;97208.00;;;;5044102;28;20437;-80
2022/01/01 02:22:58;;;;;;;5.97;5.20;;;3.10;99.90;3.10;97208.00;;;;5031123;28;20462;-79
2022/01/01 02:25:50;;;;;;;7.63;5.70;;;3.10;99.90;3.20;97191.00;;;;5052990;28;20453;-79
2022/01/01 02:28:41;;;;;;;9.00;5.23;;;3.20;99.90;3.20;97191.00;;;;5038653;28;20438;-79
2022/01/01 02:31:33;;;;;;;5.00;4.50;;;3.20;99.90;3.30;97200.00;;;;5045300;28;20455;-80
2022/01/01 02:34:22;;;;;;;6.60;4.50;;;3.30;99.90;3.10;97209.00;;;;5040719;28;20208;-79
2022/01/01 02:37:13;;;;;;;9.53;4.47;;;3.30;99.90;3.10;97214.00;;;;5043746;28;20216;-79
2022/01/01 02:40:02;;;;;;;5.30;4.20;;;3.30;99.90;3.30;97198.00;;;;5042770;28;20209;-79
2022/01/01 02:42:51;;;;;;;9.97;5.77;;;3.30;99.90;2.90;97200.00;;;;5060624;28;20440;-79
2022/01/01 02:45:40;;;;;;;7.47;5.57;;;3.30;99.90;3.00;97208.00;;;;5047808;28;20432;-79
2022/01/01 02:48:29;;;;;;;6.40;5.30;;;3.20;99.90;3.20;97201.00;;;;5041292;28;20449;-78
2022/01/01 02:51:18;;;;;;;6.33;4.70;;;3.20;99.90;3.30;97199.00;;;;5058140;28;20266;-79
2022/01/01 02:54:08;;;;;;;6.83;5.00;;;3.30;99.90;3.00;97204.00;;;;5038761;28;20468;-79
2022/01/01 02:56:57;;;;;;;6.23;4.67;;;3.30;99.90;3.30;97208.00;;;;5039392;28;20199;-79
2022/01/01 02:59:46;;;;;;;7.27;4.20;;;3.30;99.90;3.30;97201.00;;;;5038484;28;20698;-79
2022/01/01 03:02:35;;;;;;;6.80;4.57;;;3.30;99.90;3.50;97198.00;;;;5039313;28;20440;-79
2022/01/01 03:05:24;;;;;;;6.60;4.50;;;3.40;99.90;3.50;97204.00;;;;5037760;28;20443;-79
2022/01/01 03:08:13;;;;;;;4.47;3.47;;;3.50;99.90;3.50;97219.00;;;;5046934;28;20217;-79
2022/01/01 03:11:03;;;;;;;6.87;3.80;;;3.50;99.90;3.60;97209.00;;;;5030552;28;20449;-79
2022/01/01 03:13:52;;;;;;;7.73;4.17;;;3.50;99.90;3.60;97213.00;;;;5041127;28;20203;-79
2022/01/01 03:16:41;;;;;;;5.03;3.97;;;3.60;99.90;3.60;97219.00;;;;5037607;28;20208;-79
2022/01/01 03:19:30;;;;;;;4.17;3.70;;;3.60;99.90;3.60;97197.00;;;;5033859;28;20432;-79
2022/01/01 03:22:19;;;;;;;3.80;3.20;;;3.60;99.90;3.30;97232.00;;;;5039690;28;20718;-79
2022/01/01 03:25:08;;;;;;;5.17;3.73;;;3.60;99.90;3.50;97210.00;;;;5055736;28;20433;-78
2022/01/01 03:27:59;;;;;;;6.20;3.37;;;3.60;99.90;3.20;97208.00;;;;5059736;28;20201;-79
2022/01/01 03:30:47;;;;;;;5.17;3.97;;;3.60;99.90;3.30;97212.00;;;;5047912;28;20204;-79
2022/01/01 03:33:36;;;;;;;5.07;3.47;;;3.50;99.90;3.50;97212.00;;;;5043340;28;20428;-78
2022/01/01 03:36:26;;;;;;;3.53;2.33;;;3.50;99.90;3.50;97221.00;;;;5028918;28;20450;-78
2022/01/01 03:39:15;;;;;;;2.97;2.50;;;2.10;99.90;3.90;97206.00;;;;5042582;28;20434;-79
2022/01/01 03:42:04;;;;;;;3.53;2.70;;;3.80;99.90;3.90;97221.00;;;;5053153;28;20435;-79
2022/01/01 03:44:54;;;;;;;3.47;2.53;;;3.80;99.90;4.00;97220.00;;;;5061336;28;20204;-79
2022/01/01 03:47:43;;;;;;;4.30;2.80;;;4.00;99.90;4.20;97218.00;;;;5058798;28;20181;-79
2022/01/01 03:50:32;;;;;;;3.90;3.17;;;4.00;99.90;4.40;97215.00;;;;5047975;28;20197;-79
2022/01/01 03:53:22;;;;;;;4.90;2.53;;;4.20;99.90;4.40;97227.00;;;;5045598;28;20205;-79
2022/01/01 03:56:11;;;;;;;4.20;1.73;;;4.30;99.90;4.40;97226.00;;;;5045681;28;20221;-80
2022/01/01 03:59:00;;;;;;;2.17;1.97;;;4.40;99.90;4.20;97227.00;;;;5042524;28;21047;-79
2022/01/01 04:01:50;;;;;;;5.90;2.10;;;4.50;99.90;4.70;97224.00;;;;5054621;28;20221;-79
2022/01/01 04:04:39;;;;;;;2.70;1.83;;;4.50;99.90;5.30;97228.00;;;;5043947;28;20209;-79
2022/01/01 04:07:28;;;;;;;2.97;2.07;;;4.80;99.90;5.70;97224.00;;;;5043525;28;20208;-79
2022/01/01 04:10:17;;;;;;;1.53;1.23;;;5.10;99.90;5.60;97226.00;;;;5042687;28;20185;-78
2022/01/01 04:13:08;;;;;;;2.30;2.10;;;5.30;99.90;5.10;97232.00;;;;5029883;28;20213;-79
2022/01/01 04:15:57;;;;;;;1.83;1.70;;;5.20;99.90;5.30;97228.00;;;;5031870;28;20722;-80
2022/01/01 04:18:47;;;;;;;1.93;1.57;;;5.30;99.90;5.40;97237.00;;;;5047148;28;20207;-79
2022/01/01 04:21:36;;;;;;;1.60;1.50;;;5.40;99.90;5.40;97241.00;;;;5063731;28;20216;-80
2022/01/01 04:24:25;;;;;;;1.37;1.27;;;5.40;99.90;6.00;97222.00;;;;5062624;28;20212;-79
2022/01/01 04:27:14;;;;;;;1.77;1.17;;;5.60;99.90;6.40;97231.00;;;;5042528;28;20202;-79
2022/01/01 04:30:05;;;;;;;1.73;1.37;;;5.90;99.90;6.30;97239.00;;;;5055000;28;20189;-79
2022/01/01 04:32:53;;;;;;;1.47;1.17;;;6.00;99.90;5.80;97245.00;;;;5046858;28;20221;-79
2022/01/01 04:35:44;;;;;;;1.80;1.70;;;6.00;99.90;5.40;97246.00;;;;5064039;28;20225;-79
2022/01/01 04:38:37;;;;;;;1.40;1.30;;;5.80;99.90;5.30;97231.00;;;;5052530;28;20193;-79
2022/01/01 04:41:26;;;;;;;2.00;1.73;;;5.70;99.90;5.40;97238.00;;;;5049159;28;20220;-79
2022/01/01 04:44:15;;;;;;;1.40;1.30;;;5.60;99.90;5.80;97237.00;;;;5044669;28;20198;-79
2022/01/01 04:47:05;;;;;;;3.60;1.43;;;5.60;99.90;5.80;97232.00;;;;5036776;28;20220;-80
2022/01/01 04:49:54;;;;;;;3.17;1.33;;;5.70;99.90;5.90;97232.00;;;;5041816;28;20194;-80
2022/01/01 04:52:45;;;;;;;1.70;1.30;;;5.80;99.90;5.80;97239.00;;;;5048925;28;20228;-80
2022/01/01 04:55:34;;;;;;;1.67;1.10;;;5.80;99.90;5.60;97239.00;;;;5058571;28;20212;-79
2022/01/01 04:58:23;;;;;;;1.40;1.07;;;5.80;99.90;5.90;97247.00;;;;5044509;28;20213;-79
2022/01/01 05:01:12;;;;;;;1.20;1.00;;;5.80;99.90;6.50;97260.00;;;;5054088;28;20213;-79
2022/01/01 05:04:01;;;;;;;1.57;1.40;;;5.90;99.90;6.10;97254.00;;;;5043592;28;20197;-80
2022/01/01 05:06:51;;;;;;;2.20;2.10;;;6.00;99.90;5.70;97254.00;;;;5044054;28;20211;-79
2022/01/01 05:09:42;;;;;;;3.63;1.20;;;6.00;99.90;5.50;97260.00;;;;5043681;28;20203;-79
2022/01/01 05:12:31;;;;;;;1.40;1.17;;;5.80;99.90;5.40;97267.00;;;;5044463;28;20221;-80
2022/01/01 05:15:20;;;;;;;2.13;1.10;;;5.70;99.90;5.40;97269.00;;;;5043819;28;20291;-79
2022/01/01 05:18:09;;;;;;;1.53;1.10;;;5.60;99.90;5.70;97262.00;;;;5043401;28;20193;-79
2022/01/01 05:20:58;;;;;;;2.13;1.40;;;5.60;99.90;5.50;97264.00;;;;5044749;28;20205;-79
2022/01/01 05:23:46;;;;;;;1.37;1.10;;;5.60;99.90;5.20;97263.00;;;;5023773;28;20303;-79
2022/01/01 05:26:37;;;;;;;1.33;1.23;;;5.50;99.90;5.40;97262.00;;;;5024282;28;20225;-79
2022/01/01 05:29:26;;;;;;;2.77;1.90;;;5.40;99.90;5.70;97266.00;;;;5022218;28;20219;-80
2022/01/01 05:32:15;;;;;;;3.53;2.10;;;5.50;99.90;5.30;97278.00;;;;5041020;28;20225;-78
2022/01/01 05:35:05;;;;;;;2.03;1.50;;;5.50;99.90;5.20;97280.00;;;;5042175;28;20197;-79
2022/01/01 05:37:54;;;;;;;2.10;1.33;;;5.40;99.90;5.10;97279.00;;;;5043610;28;20212;-79
2022/01/01 05:40:43;;;;;;;1.10;1.00;;;5.30;99.90;5.80;97296.00;;;;5042315;28;20193;-79
2022/01/01 05:43:33;;;;;;;1.03;0.90;;;5.40;99.90;6.00;97296.00;;;;5043053;28;20448;-80
2022/01/01 05:46:22;;;;;;;1.73;1.23;;;5.60;99.90;5.80;97295.00;;;;5051607;28;20197;-79
2022/01/01 05:49:11;;;;;;;4.97;1.53;;;5.70;99.90;5.60;97300.00;;;;5041830;28;20217;-79
2022/01/01 05:52:00;;;;;;;1.63;1.23;;;5.70;99.90;5.40;97298.00;;;;5048007;28;20224;-80
2022/01/01 05:54:49;;;;;;;4.77;1.70;;;5.60;99.90;5.30;97297.00;;;;5062037;28;20611;-80
2022/01/01 05:57:37;;;;;;;1.30;1.10;;;5.50;99.90;5.20;97305.00;;;;5062744;28;20258;-79
2022/01/01 06:00:28;;;;;;;1.10;1.10;;;5.40;99.90;4.80;97306.00;;;;5062198;28;20197;-79
2022/01/01 06:03:18;;;;;;;1.87;1.57;;;5.20;99.90;4.80;97309.00;;;;5048002;28;20205;-79
2022/01/01 06:06:06;;;;;;;3.70;2.83;;;5.10;99.90;4.80;97321.00;;;;5022482;28;20198;-80
2022/01/01 06:09:00;;;;;;;2.10;1.57;;;5.00;99.90;4.60;97313.00;;;;5023320;28;20871;-79
2022/01/01 06:11:49;;;;;;;1.47;1.10;;;4.90;99.90;4.70;97332.00;;;;5025607;28;20525;-79
2022/01/01 06:14:38;;;;;;;1.27;1.20;;;4.80;99.90;4.60;97341.00;;;;5042764;28;20202;-79
2022/01/01 06:17:28;;;;;;;1.97;1.40;;;4.80;99.90;4.50;97331.00;;;;5042695;28;20229;-79
2022/01/01 06:20:18;;;;;;;2.93;1.80;;;4.70;99.90;4.50;97341.00;;;;5042525;28;20198;-79
2022/01/01 06:23:21;;;;;;;1.87;1.77;;;4.60;99.90;4.50;97340.00;;;;5040962;28;20235;-79
2022/01/01 06:26:09;;;;;;;1.30;1.20;;;4.60;99.90;4.50;97344.00;;;;5041993;28;20243;-79
2022/01/01 06:28:59;;;;;;;1.50;1.10;;;3.10;99.90;4.60;97339.00;;;;5040538;28;20201;-79
2022/01/01 06:31:47;;;;;;;1.57;1.00;;;4.50;99.90;4.70;97340.00;;;;5039594;28;20231;-80
2022/01/01 06:34:41;;;;;;;1.10;1.00;;;4.60;99.90;4.70;97345.00;;;;5041781;28;20201;-80
2022/01/01 06:37:30;;;;;;;1.57;1.47;;;4.60;99.90;4.80;97348.00;;;;5040859;28;20217;-79
2022/01/01 06:40:19;;;;;;;1.10;0.97;;;4.70;99.90;4.80;97359.00;;;;5050258;28;20198;-79
2022/01/01 06:43:08;;;;;;;1.67;1.50;;;4.70;99.90;4.90;97354.00;;;;5041548;28;20193;-79
2022/01/01 06:45:57;;;;;;;1.30;1.30;;;4.70;99.90;4.30;97364.00;;;;5040041;28;20223;-79
2022/01/01 06:48:46;;;;;;;1.10;1.00;;;4.70;99.90;4.20;97370.00;;;;5039096;28;20204;-79
2022/01/01 06:51:36;;;;;;;1.90;1.27;;;4.50;99.90;4.40;97367.00;;;;5039045;28;20252;-79
2022/01/01 06:54:25;;;;;;;1.37;1.20;;;4.60;99.90;4.30;97376.00;;;;5035550;28;20841;-79
2022/01/01 06:57:14;;;;;;;1.60;1.50;;;4.40;99.90;4.40;97376.00;;;;5039738;28;20229;-79
2022/01/01 07:00:04;;;;;;;2.10;1.37;;;4.50;99.90;4.00;97374.00;;;;5040184;28;20434;-79
2022/01/01 07:02:53;;;;;;;2.53;1.33;;;4.40;99.90;4.10;97370.00;;;;5039600;28;20227;-79
2022/01/01 07:05:42;;;;;;;2.90;1.40;;;4.30;99.90;4.10;97382.00;;;;5038650;28;20197;-79
2022/01/01 07:08:32;;;;;;;1.73;1.40;;;4.30;99.90;4.00;97388.00;;;;5041754;28;20429;-80
2022/01/01 07:11:21;;;;;;;1.50;1.27;;;4.20;99.90;4.10;97390.00;;;;5040442;28;20227;-79
2022/01/01 07:14:11;;;;;;;1.70;1.60;;;4.20;99.90;4.20;97398.00;;;;5042837;28;20316;-79
2022/01/01 07:16:59;;;;;;;1.53;1.40;;;4.20;99.90;3.70;97401.00;;;;5055042;28;20220;-79
2022/01/01 07:19:48;;;;;;;2.20;1.43;;;4.20;99.90;4.10;97397.00;;;;5046545;28;20197;-79
2022/01/01 07:22:41;;;;;;;1.40;1.23;;;4.10;99.90;4.50;97401.00;;;;5061091;28;20213;-79
2022/01/01 07:25:31;;;;;;;1.67;1.57;;;4.20;99.90;4.00;97396.00;;;;5065264;28;20707;-79
2022/01/01 07:28:20;;;;;;;1.40;1.27;;;4.20;99.90;4.50;97396.00;;;;5063280;28;20196;-78
2022/01/01 07:31:09;;;;;;;1.90;1.30;;;4.30;99.90;4.60;97406.00;;;;5054084;28;20284;-79
2022/01/01 07:33:58;;;;;;;1.70;1.60;;;4.40;99.90;4.20;97407.00;;;;5044467;28;20269;-79
2022/01/01 07:36:47;;;;;;;3.33;1.70;;;4.40;99.90;4.70;97404.00;;;;5058871;28;20224;-79
2022/01/01 07:39:36;;;;;;;1.50;1.40;;;4.50;99.90;4.90;97402.00;;;;5046956;28;20208;-79
2022/01/01 07:42:26;;;;;;;1.50;1.40;;;4.60;99.90;4.80;97421.00;;;;5044011;28;20728;-79
2022/01/01 07:45:15;;;;;;;2.23;1.50;;;4.70;99.90;5.10;97415.00;;;;5043083;28;20195;-79
2022/01/01 07:48:05;;;;;;;1.80;1.70;;;4.80;99.90;5.20;97434.00;;;;5056579;28;20400;-79
2022/01/01 07:50:54;;;;;;;1.93;1.40;;;4.90;99.90;4.90;97417.00;;;;5052418;28;20204;-79
2022/01/01 07:53:43;;;;;;;1.90;1.80;;;5.00;99.90;5.30;97419.00;;;;5035598;28;20198;-79
2022/01/01 07:56:32;;;;;;;4.30;1.93;;;5.00;99.90;4.90;97425.00;;;;5045230;28;20218;-79
2022/01/01 07:59:24;;;;;;;3.83;1.87;;;5.10;99.90;5.20;97426.00;;;;5022660;28;20384;-79
2022/01/01 08:02:13;;;;;;;2.33;2.13;;;5.10;99.90;5.50;97429.00;;;;5061262;28;20231;-79
2022/01/01 08:05:02;;;;;;;5.17;2.60;;;5.20;99.90;5.20;97442.00;;;;5054525;28;20224;-80
2022/01/01 08:07:51;;;;;;;2.63;1.87;;;5.20;99.90;5.40;97441.00;;;;5042201;28;20459;-79
2022/01/01 08:10:49;;;;;;;2.90;2.60;;;5.20;99.90;5.60;97442.00;;;;5052848;28;20201;-79
2022/01/01 08:13:38;;;;;;;4.77;2.73;;;5.30;99.90;6.00;97445.00;;;;5042991;28;20454;-79
2022/01/01 08:16:29;;;;;;;3.30;2.40;;;5.40;99.90;5.40;97451.00;;;;5041625;28;20233;-79
2022/01/01 08:19:17;;;;;;;2.10;1.77;;;5.50;99.90;5.70;97453.00;;;;5044946;28;20210;-80
2022/01/01 08:22:06;;;;;;;2.43;2.23;;;5.50;99.90;5.50;97462.00;;;;5068698;28;20205;-80
2022/01/01 08:24:55;;;;;;;3.10;1.97;;;5.60;99.90;5.80;97459.00;;;;5066438;28;20610;-79
2022/01/01 08:27:44;;;;;;;1.90;1.70;;;4.70;99.90;5.60;97459.00;;;;5040231;28;20197;-81
2022/01/01 08:30:33;;;;;;;1.47;1.37;;;5.60;99.90;6.20;97445.00;;;;5045204;28;20205;-80
2022/01/01 08:33:24;;;;;;;2.77;2.10;;;5.70;99.90;5.90;97469.00;;;;5042213;28;20208;-80
2022/01/01 08:36:14;;;;;;;1.80;1.70;;;5.80;99.90;6.10;97469.00;;;;5043018;28;20192;-79
2022/01/01 08:39:05;;;;;;;2.33;2.13;;;5.80;99.90;6.50;97465.00;;;;5045371;28;20197;-80
2022/01/01 08:41:54;;;;;;;4.03;1.70;;;5.90;99.90;6.40;97463.00;;;;5044602;28;20217;-81
2022/01/01 08:44:44;;;;;;;2.53;1.87;;;6.10;99.90;6.60;97466.00;;;;5043664;28;20198;-79
2022/01/01 08:47:33;;;;;;;2.23;1.77;;;6.20;99.90;6.70;97466.00;;;;5042391;28;20197;-79
2022/01/01 08:50:23;;;;;;;2.67;1.63;;;6.30;99.90;6.60;97479.00;;;;5030285;28;20708;-81
2022/01/01 08:53:12;;;;;;;1.63;1.50;;;6.40;99.90;6.60;97488.00;;;;5044042;28;20222;-80
2022/01/01 08:56:02;;;;;;;1.37;1.27;;;6.50;99.90;6.90;97505.00;;;;5043516;28;20201;-81
2022/01/01 08:58:51;;;;;;;1.10;1.00;;;6.50;99.90;7.00;97502.00;;;;5043565;28;20229;-80
2022/01/01 09:01:40;;;;;;;9.87;6.67;;;6.60;99.90;7.10;97512.00;;;;5043976;28;20232;-79
2022/01/01 09:04:29;;;;;;;4.50;3.40;;;6.70;99.90;6.80;97509.00;;;;5041789;28;20299;-80
2022/01/01 09:07:19;;;;;;;5.87;2.43;;;6.70;99.90;7.20;97513.00;;;;5034570;28;20223;-78
2022/01/01 09:10:10;;;;;;;8.03;4.40;;;6.80;99.90;7.40;97510.00;;;;5034027;28;20262;-81
2022/01/01 09:12:59;;;;;;;6.50;5.43;;;6.90;99.90;7.50;97516.00;;;;5033467;28;20243;-80
2022/01/01 09:15:49;;;;;;;14.30;12.20;;;7.00;99.90;7.70;97530.00;;;;5034714;28;20197;-82
2022/01/01 09:18:39;;;;;;;14.13;12.97;;;7.10;99.90;8.10;97536.00;;;;5046912;28;20224;-79
2022/01/01 09:21:28;;;;;;;12.67;11.57;;;7.30;99.90;8.40;97533.00;;;;5063225;28;20228;-79
2022/01/01 09:24:18;;;;;;;20.87;18.93;;;7.50;99.90;8.50;97539.00;;;;5063081;28;20204;-79
2022/01/01 09:27:08;;;;;;;17.43;12.77;;;7.70;99.90;8.90;97532.00;;;;5063975;28;20211;-79
2022/01/01 09:29:57;;;;;;;15.20;12.03;;;7.90;99.90;8.40;97536.00;;;;5055934;28;20193;-79
2022/01/01 09:32:46;;;;;;;8.30;7.10;;;8.10;99.90;8.10;97553.00;;;;5042522;28;20213;-80
2022/01/01 09:35:35;;;;;;;9.77;8.17;;;8.10;99.90;8.30;97539.00;;;;5043425;28;20199;-80
2022/01/01 09:38:24;;;;;;;10.37;6.53;;;8.10;99.90;8.80;97548.00;;;;5045768;28;20225;-79
2022/01/01 09:41:16;;;;;;;14.20;10.80;;;8.20;99.90;9.20;97544.00;;;;5043696;28;20327;-79
2022/01/01 09:44:05;;;;;;;69.23;44.33;;;8.30;99.90;8.70;97552.00;;;;5043574;28;20550;-80
2022/01/01 09:46:55;;;;;;;406.30;232.90;;;8.50;99.90;9.10;97546.00;;;;5036878;28;20204;-77
2022/01/01 09:49:45;;;;;;;95.00;54.97;;;8.60;99.90;9.30;97545.00;;;;5029825;28;20262;-79
2022/01/01 09:52:34;;;;;;;27.33;19.00;;;8.70;99.90;9.70;97548.00;;;;5049628;28;20220;-81
2022/01/01 09:55:23;;;;;;;22.10;14.53;;;8.80;99.90;10.00;97546.00;;;;5062861;28;20205;-80
2022/01/01 09:58:13;;;;;;;5.83;4.60;;;9.00;99.90;9.20;97538.00;;;;5062340;28;20224;-80
2022/01/01 10:01:04;;;;;;;4.93;3.93;;;9.10;99.90;9.20;97540.00;;;;5041344;28;20604;-80
2022/01/01 10:03:56;;;;;;;7.10;4.93;;;9.10;99.90;9.80;97544.00;;;;5050831;28;20192;-80
2022/01/01 10:07:02;;;;;;;4.83;4.33;;;9.20;99.90;10.20;97551.00;;;;5053676;28;20220;-83
2022/01/01 10:09:52;;;;;;;4.47;3.70;;;9.30;99.90;10.30;97540.00;;;;5039961;28;20201;-81
2022/01/01 10:12:43;;;;;;;5.67;3.33;;;9.50;99.90;10.30;97545.00;;;;5037403;28;20221;-77
2022/01/01 10:15:39;;;;;;;2.97;2.60;;;9.70;99.90;10.30;97544.00;;;;5039567;28;20201;-82
2022/01/01 10:18:30;;;;;;;3.07;2.37;;;9.80;99.90;10.70;97547.00;;;;5040565;28;20437;-79
2022/01/01 10:21:21;;;;;;;2.57;2.27;;;9.90;99.90;11.30;97556.00;;;;5039314;28;20213;-78
2022/01/01 10:24:14;;;;;;;3.07;2.73;;;10.20;99.90;11.20;97557.00;;;;5037644;28;20216;-78
2022/01/01 10:30:22;;;;;;;4.63;3.93;;;11.00;99.90;12.30;97558.00;;;;5031475;28;20234;-78
2022/01/01 10:33:15;;;;;;;6.47;4.20;;;11.80;99.90;13.00;97567.00;;;;5028236;28;20186;-77
2022/01/01 10:36:07;;;;;;;4.20;3.37;;;12.70;99.90;13.60;97570.00;;;;5029549;28;20216;-78
2022/01/01 10:39:08;;;;;;;4.77;2.80;;;13.60;99.90;13.80;97566.00;;;;5032086;28;20221;-80
2022/01/01 10:41:59;;;;;;;3.27;2.47;;;14.30;99.90;13.60;97569.00;;;;5038584;28;20225;-78
2022/01/01 10:44:51;;;;;;;5.17;2.73;;;14.60;99.90;14.00;97567.00;;;;5014333;28;20212;-78
2022/01/01 10:47:42;;;;;;;3.97;2.80;;;14.60;99.90;14.30;97562.00;;;;5034048;28;20201;-79
2022/01/01 10:50:36;;;;;;;2.93;2.37;;;14.90;99.90;15.10;97556.00;;;;5033701;28;20193;-78
2022/01/01 10:53:26;;;;;;;5.87;3.80;;;15.20;99.90;15.70;97560.00;;;;5046462;28;20609;-77
2022/01/01 10:56:21;;;;;;;3.10;2.10;;;15.70;99.90;16.00;97558.00;;;;5035032;28;20197;-77
2022/01/01 10:59:11;;;;;;;3.10;2.10;;;16.10;99.90;15.70;97561.00;;;;5037224;28;20220;-79
2022/01/01 11:02:00;;;;;;;4.60;2.70;;;16.40;99.90;15.00;97564.00;;;;5039637;28;20833;-78
2022/01/01 11:04:49;;;;;;;4.07;2.73;;;16.40;99.90;14.80;97544.00;;;;5039840;28;20224;-77
2022/01/01 11:07:51;;;;;;;8.60;4.80;;;16.10;99.90;15.10;97562.00;;;;5040803;28;20204;-79
2022/01/01 11:10:41;;;;;;;13.73;6.60;;;15.80;99.90;16.00;97556.00;;;;5033058;28;20197;-77
2022/01/01 11:13:32;;;;;;;6.03;4.73;;;15.80;99.90;16.40;97552.00;;;;5049014;28;20207;-78
2022/01/01 11:16:21;;;;;;;12.03;8.00;;;16.10;99.90;16.50;97552.00;;;;5055188;28;20211;-78
2022/01/01 11:19:11;;;;;;;17.27;12.50;;;16.40;99.90;16.20;97559.00;;;;5040756;28;20221;-77
2022/01/01 11:22:01;;;;;;;8.23;6.30;;;16.50;99.90;16.10;97542.00;;;;5039559;28;20217;-79
2022/01/01 11:24:53;;;;;;;30.80;20.70;;;16.60;99.90;16.20;97555.00;;;;5020153;28;20353;-77
2022/01/01 11:27:43;;;;;;;25.83;15.57;;;16.40;99.90;16.10;97551.00;;;;5019162;28;20210;-79
2022/01/01 11:30:35;;;;;;;4.63;4.13;;;16.30;99.90;16.40;97548.00;;;;5027735;28;20213;-78
2022/01/01 11:33:33;;;;;;;3.17;2.87;;;16.40;99.90;16.20;97540.00;;;;5037620;28;20189;-78
2022/01/01 11:36:25;;;;;;;5.43;3.53;;;16.30;99.90;17.10;97555.00;;;;5034725;28;20213;-77
2022/01/01 11:39:14;;;;;;;2.73;1.27;;;16.40;99.90;16.40;97548.00;;;;5035657;28;20203;-77
2022/01/01 11:42:15;;;;;;;1.13;0.73;;;16.60;99.90;15.70;97535.00;;;;5039191;28;20217;-79
2022/01/01 11:45:05;;;;;;;0.80;0.70;;;16.30;99.90;16.20;97531.00;;;;5020803;28;20193;-79
2022/01/01 11:48:35;;;;;;;1.07;0.90;;;16.20;99.90;16.80;97536.00;;;;5022344;28;20669;-79
2022/01/01 11:51:35;;;;;;;0.90;0.70;;;16.30;99.90;17.00;97538.00;;;;5017352;28;20253;-79
2022/01/01 11:54:26;;;;;;;2.67;2.20;;;16.60;99.90;17.30;97530.00;;;;5055506;28;20201;-79
2022/01/01 11:57:26;;;;;;;1.30;1.20;;;16.80;99.90;17.70;97524.00;;;;5057648;28;20204;-79
2022/01/01 12:00:15;;;;;;;1.33;0.73;;;17.20;99.70;17.90;97521.00;;;;5042221;28;20536;-79
2022/01/01 12:03:13;;;;;;;1.20;0.77;;;17.70;99.30;17.40;97525.00;;;;5030349;28;20692;-78
2022/01/01 12:06:05;;;;;;;1.27;0.70;;;17.90;96.90;17.50;97532.00;;;;5034138;28;20630;-75
2022/01/01 12:08:54;;;;;;;0.87;0.60;;;17.90;94.50;16.20;97514.00;;;;5021713;28;20221;-74
2022/01/01 12:11:55;;;;;;;1.43;0.83;;;17.60;93.30;15.00;97519.00;;;;5028644;28;20706;-80
2022/01/01 12:14:46;;;;;;;1.37;0.73;;;16.80;92.60;15.40;97511.00;;;;5031328;28;20189;-74
2022/01/01 12:17:43;;;;;;;2.03;1.57;;;16.40;93.50;16.50;97499.00;;;;5026829;28;20675;-74
2022/01/01 12:20:36;;;;;;;1.60;1.13;;;16.40;94.50;16.50;97509.00;;;;5027978;28;20208;-80
2022/01/01 12:23:29;;;;;;;2.87;2.10;;;16.50;92.50;16.50;97509.00;;;;5040841;28;20211;-81
2022/01/01 12:26:18;;;;;;;4.37;2.80;;;16.60;92.10;16.50;97503.00;;;;5057799;28;20215;-80
2022/01/01 12:29:09;;;;;;;2.23;1.63;;;16.60;91.20;16.80;97510.00;;;;5059458;28;20216;-81
2022/01/01 12:32:00;;;;;;;1.37;1.27;;;16.60;91.10;16.20;97497.00;;;;5056307;28;20234;-80
2022/01/01 12:35:08;;;;;;;1.47;1.07;;;15.20;91.90;15.60;97504.00;;;;5060580;28;20196;-77
2022/01/01 12:38:07;;;;;;;1.50;1.40;;;16.10;93.10;16.10;97497.00;;;;5039576;28;20258;-81
2022/01/01 12:41:05;;;;;;;2.10;1.70;;;16.00;92.40;16.50;97504.00;;;;5040198;28;20406;-79
2022/01/01 12:43:57;;;;;;;1.63;1.53;;;16.00;92.50;17.00;97510.00;;;;5043062;28;20532;-79
2022/01/01 12:46:48;;;;;;;1.93;1.80;;;16.20;91.60;17.40;97498.00;;;;5029604;28;20194;-77
2022/01/01 12:49:42;;;;;;;1.87;1.77;;;16.50;91.60;17.30;97499.00;;;;5037213;28;20611;-78
2022/01/01 12:52:31;;;;;;;1.80;1.40;;;16.70;91.40;17.60;97505.00;;;;5042494;28;20232;-80